createdAt,value
2019-04-04T00:00:54.409Z,15.18
2019-04-04T00:01:54.444Z,15.12
2019-04-04T00:02:54.477Z,15.13
2019-04-04T00:03:54.511Z,15.15
2019-04-04T00:04:54.547Z,15.11
2019-04-04T00:05:56.390Z,15.13
2019-04-04T00:06:57.852Z,15.16
2019-04-04T00:07:54.647Z,15.05
2019-04-04T00:08:54.685Z,15.01
2019-04-04T00:09:54.714Z,15.03
2019-04-04T00:10:54.749Z,15.03
2019-04-04T00:11:54.783Z,15.07
2019-04-04T00:12:54.817Z,15.05
2019-04-04T00:13:54.849Z,15.04
2019-04-04T00:14:54.885Z,14.98
2019-04-04T00:15:54.918Z,15.01
2019-04-04T00:16:54.954Z,14.95
2019-04-04T00:17:54.987Z,14.98
2019-04-04T00:18:55.020Z,14.97
2019-04-04T00:19:55.054Z,14.94
2019-04-04T00:20:55.092Z,14.98
2019-04-04T00:21:55.121Z,14.95
2019-04-04T00:22:55.155Z,14.97
2019-04-04T00:23:55.189Z,14.94
2019-04-04T00:24:55.227Z,14.98
2019-04-04T00:25:55.258Z,14.93
2019-04-04T00:26:55.292Z,15.01
2019-04-04T00:27:55.327Z,14.98
2019-04-04T00:28:55.360Z,14.94
2019-04-04T00:29:55.393Z,14.82
2019-04-04T00:30:55.426Z,14.90
2019-04-04T00:31:55.459Z,14.86
2019-04-04T00:32:55.498Z,14.91
2019-04-04T00:33:55.959Z,14.91
2019-04-04T00:34:55.562Z,14.90
2019-04-04T00:35:55.598Z,14.91
2019-04-04T00:36:55.630Z,14.85
2019-04-04T00:37:55.664Z,14.85
2019-04-04T00:38:55.698Z,14.87
2019-04-04T00:39:55.732Z,14.83
2019-04-04T00:40:55.765Z,14.80
2019-04-04T00:41:55.799Z,14.79
2019-04-04T00:42:55.833Z,14.80
2019-04-04T00:43:55.872Z,14.83
2019-04-04T00:44:56.360Z,14.86
2019-04-04T00:45:55.934Z,14.75
2019-04-04T00:46:55.968Z,14.83
2019-04-04T00:47:56.002Z,14.86
2019-04-04T00:48:56.035Z,14.75
2019-04-04T00:51:03.275Z,14.71
2019-04-04T00:53:00.135Z,14.71
2019-04-04T00:54:00.165Z,14.66
2019-04-04T00:56:04.195Z,14.71
2019-04-04T00:57:04.224Z,14.74
2019-04-04T00:59:08.277Z,14.69
2019-04-04T01:00:08.282Z,14.63
2019-04-04T01:02:12.317Z,14.64
2019-04-04T01:03:12.345Z,14.63
2019-04-04T01:05:16.383Z,14.59
2019-04-04T01:06:16.411Z,14.60
2019-04-04T01:07:16.444Z,14.60
2019-04-04T01:08:16.479Z,14.59
2019-04-04T01:09:16.513Z,14.57
2019-04-04T01:10:18.815Z,14.53
2019-04-04T01:11:18.326Z,14.53
2019-04-04T01:12:16.611Z,14.52
2019-04-04T01:13:16.647Z,14.49
2019-04-04T01:14:16.680Z,14.44
2019-04-04T01:15:16.717Z,14.48
2019-04-04T01:16:16.747Z,14.45
2019-04-04T01:17:16.782Z,14.45
2019-04-04T01:18:16.812Z,14.45
2019-04-04T01:19:16.849Z,14.46
2019-04-04T01:20:18.121Z,14.48
2019-04-04T01:21:16.917Z,14.45
2019-04-04T01:22:16.949Z,14.45
2019-04-04T01:23:16.981Z,14.34
2019-04-04T01:24:17.018Z,14.30
2019-04-04T01:25:17.048Z,14.41
2019-04-04T01:26:17.083Z,14.36
2019-04-04T01:27:17.117Z,14.30
2019-04-04T01:28:17.150Z,14.39
2019-04-04T01:29:17.193Z,14.38
2019-04-04T01:30:17.219Z,14.38
2019-04-04T01:31:17.250Z,14.34
2019-04-04T01:32:17.659Z,14.29
2019-04-04T01:33:19.692Z,14.30
2019-04-04T01:34:18.792Z,14.23
2019-04-04T01:35:17.384Z,14.31
2019-04-04T01:36:17.424Z,14.24
2019-04-04T01:37:17.454Z,14.23
2019-04-04T01:38:17.486Z,14.21
2019-04-04T01:39:17.519Z,14.20
2019-04-04T01:40:17.552Z,14.26
2019-04-04T01:41:17.584Z,14.13
2019-04-04T01:42:17.621Z,14.29
2019-04-04T01:43:17.655Z,14.24
2019-04-04T01:44:17.686Z,14.23
2019-04-04T01:45:17.722Z,14.16
2019-04-04T01:46:17.753Z,14.23
2019-04-04T01:47:17.786Z,14.21
2019-04-04T01:48:18.809Z,14.19
2019-04-04T01:49:19.119Z,14.23
2019-04-04T01:50:17.886Z,14.17
2019-04-04T01:51:17.921Z,14.19
2019-04-04T01:52:17.953Z,14.02
2019-04-04T01:53:17.990Z,14.09
2019-04-04T01:54:18.019Z,14.09
2019-04-04T01:55:18.057Z,14.09
2019-04-04T01:56:18.086Z,14.12
2019-04-04T01:57:18.121Z,14.06
2019-04-04T01:58:18.154Z,14.01
2019-04-04T01:59:18.189Z,14.01
2019-04-04T02:00:18.220Z,14.12
2019-04-04T02:01:18.254Z,14.02
2019-04-04T02:02:18.626Z,14.06
2019-04-04T02:03:18.321Z,14.04
2019-04-04T02:04:18.354Z,13.98
2019-04-04T02:05:18.385Z,13.99
2019-04-04T02:06:18.422Z,13.99
2019-04-04T02:07:18.454Z,13.94
2019-04-04T02:08:18.486Z,13.90
2019-04-04T02:09:18.524Z,14.02
2019-04-04T02:10:18.552Z,13.99
2019-04-04T02:11:18.586Z,13.91
2019-04-04T02:12:18.619Z,13.99
2019-04-04T02:13:18.654Z,13.98
2019-04-04T02:14:19.563Z,13.94
2019-04-04T02:15:18.722Z,13.93
2019-04-04T02:16:18.752Z,13.90
2019-04-04T02:17:20.110Z,13.93
2019-04-04T02:18:18.821Z,13.88
2019-04-04T02:19:18.852Z,13.88
2019-04-04T02:20:18.886Z,13.86
2019-04-04T02:21:18.920Z,13.88
2019-04-04T02:22:18.952Z,13.83
2019-04-04T02:23:18.985Z,13.86
2019-04-04T02:24:19.018Z,13.83
2019-04-04T02:25:19.050Z,13.84
2019-04-04T02:26:19.084Z,13.76
2019-04-04T02:27:19.118Z,13.86
2019-04-04T02:28:19.237Z,13.86
2019-04-04T02:29:19.184Z,13.83
2019-04-04T02:30:19.281Z,13.83
2019-04-04T02:31:21.038Z,13.79
2019-04-04T02:32:19.285Z,13.68
2019-04-04T02:33:19.316Z,13.81
2019-04-04T02:34:19.349Z,13.76
2019-04-04T02:35:19.382Z,13.81
2019-04-04T02:36:19.416Z,13.76
2019-04-04T02:37:21.209Z,13.72
2019-04-04T02:38:19.482Z,13.71
2019-04-04T02:39:19.517Z,13.75
2019-04-04T02:40:19.554Z,13.66
2019-04-04T02:41:19.582Z,13.72
2019-04-04T02:42:22.248Z,13.69
2019-04-04T02:43:19.649Z,13.68
2019-04-04T02:44:19.689Z,13.71
2019-04-04T02:45:19.713Z,13.69
2019-04-04T02:46:19.746Z,13.50
2019-04-04T02:47:19.785Z,13.57
2019-04-04T02:48:23.336Z,13.48
2019-04-04T02:49:19.886Z,13.57
2019-04-04T02:50:19.881Z,13.50
2019-04-04T02:51:19.918Z,13.51
2019-04-04T02:52:19.945Z,13.47
2019-04-04T02:53:20.535Z,13.44
2019-04-04T02:54:23.985Z,13.50
2019-04-04T02:55:20.047Z,13.46
2019-04-04T02:56:20.081Z,13.46
2019-04-04T02:57:20.109Z,13.44
2019-04-04T02:58:20.145Z,13.50
2019-04-04T02:59:21.688Z,13.36
2019-04-04T03:00:20.211Z,13.38
2019-04-04T03:01:20.242Z,13.44
2019-04-04T03:02:20.277Z,13.38
2019-04-04T03:03:20.311Z,13.38
2019-04-04T03:04:20.356Z,13.41
2019-04-04T03:05:20.372Z,13.35
2019-04-04T03:06:23.907Z,13.35
2019-04-04T03:07:20.442Z,13.31
2019-04-04T03:08:20.474Z,13.36
2019-04-04T03:09:20.509Z,13.41
2019-04-04T03:10:20.556Z,13.35
2019-04-04T03:11:21.977Z,13.36
2019-04-04T03:12:20.613Z,13.25
2019-04-04T03:13:20.647Z,13.29
2019-04-04T03:14:20.675Z,13.24
2019-04-04T03:15:20.704Z,13.29
2019-04-04T03:16:21.534Z,13.27
2019-04-04T03:17:20.874Z,13.27
2019-04-04T03:18:20.803Z,13.27
2019-04-04T03:19:20.836Z,13.25
2019-04-04T03:20:20.870Z,13.25
2019-04-04T03:21:23.495Z,13.22
2019-04-04T03:22:20.933Z,13.17
2019-04-04T03:23:20.968Z,13.16
2019-04-04T03:24:21.001Z,13.27
2019-04-04T03:25:21.032Z,13.16
2019-04-04T03:26:21.068Z,13.21
2019-04-04T03:27:25.457Z,13.16
2019-04-04T03:28:21.132Z,13.14
2019-04-04T03:29:21.167Z,13.17
2019-04-04T03:30:21.197Z,13.14
2019-04-04T03:31:21.230Z,13.12
2019-04-04T03:32:21.263Z,13.14
2019-04-04T03:33:25.127Z,13.16
2019-04-04T03:34:21.358Z,13.17
2019-04-04T03:35:25.563Z,13.13
2019-04-04T03:36:21.399Z,13.13
2019-04-04T03:37:21.427Z,13.06
2019-04-04T03:38:21.465Z,13.06
2019-04-04T03:39:21.489Z,13.10
2019-04-04T03:40:24.733Z,13.03
2019-04-04T03:41:21.557Z,13.12
2019-04-04T03:42:21.608Z,13.07
2019-04-04T03:43:21.622Z,13.06
2019-04-04T03:44:21.656Z,13.06
2019-04-04T03:45:26.248Z,13.07
2019-04-04T03:46:21.721Z,12.98
2019-04-04T03:47:21.753Z,12.96
2019-04-04T03:48:21.788Z,12.95
2019-04-04T03:49:24.415Z,12.94
2019-04-04T03:50:21.851Z,12.99
2019-04-04T03:51:21.886Z,12.94
2019-04-04T03:52:21.916Z,13.01
2019-04-04T03:53:21.952Z,12.92
2019-04-04T03:54:23.350Z,12.94
2019-04-04T03:55:22.014Z,12.96
2019-04-04T03:56:22.050Z,12.92
2019-04-04T03:57:22.079Z,12.94
2019-04-04T03:58:22.112Z,12.92
2019-04-04T03:59:22.145Z,12.92
2019-04-04T04:00:22.190Z,12.92
2019-04-04T04:01:22.210Z,12.88
2019-04-04T04:02:22.241Z,12.89
2019-04-04T04:03:23.511Z,12.84
2019-04-04T04:04:26.742Z,12.91
2019-04-04T04:05:22.339Z,12.77
2019-04-04T04:06:22.373Z,12.79
2019-04-04T04:07:22.406Z,12.77
2019-04-04T04:08:22.438Z,12.85
2019-04-04T04:09:23.475Z,12.84
2019-04-04T04:10:22.502Z,12.84
2019-04-04T04:11:22.536Z,12.85
2019-04-04T04:12:22.576Z,12.88
2019-04-04T04:13:22.601Z,12.87
2019-04-04T04:14:22.800Z,12.80
2019-04-04T04:15:22.680Z,12.87
2019-04-04T04:16:22.705Z,12.87
2019-04-04T04:17:22.732Z,12.85
2019-04-04T04:18:22.762Z,12.88
2019-04-04T04:19:24.476Z,12.70
2019-04-04T04:20:22.839Z,12.67
2019-04-04T04:21:22.862Z,12.85
2019-04-04T04:22:22.895Z,12.77
2019-04-04T04:23:23.842Z,12.77
2019-04-04T04:24:22.965Z,12.71
2019-04-04T04:25:22.991Z,12.80
2019-04-04T04:26:23.025Z,12.73
2019-04-04T04:27:23.061Z,12.76
2019-04-04T04:28:23.093Z,12.76
2019-04-04T04:29:23.123Z,12.73
2019-04-04T04:30:23.155Z,12.71
2019-04-04T04:31:23.187Z,12.70
2019-04-04T04:32:23.229Z,12.71
2019-04-04T04:33:23.252Z,12.69
2019-04-04T04:34:23.282Z,12.62
2019-04-04T04:35:23.325Z,12.70
2019-04-04T04:36:23.355Z,12.70
2019-04-04T04:37:23.378Z,12.62
2019-04-04T04:38:26.882Z,12.69
2019-04-04T04:39:23.446Z,12.66
2019-04-04T04:40:23.495Z,12.67
2019-04-04T04:41:23.511Z,12.66
2019-04-04T04:42:26.175Z,12.66
2019-04-04T04:43:23.576Z,12.76
2019-04-04T04:44:23.612Z,12.70
2019-04-04T04:45:23.641Z,12.70
2019-04-04T04:46:23.677Z,12.71
2019-04-04T04:47:24.151Z,12.70
2019-04-04T04:48:25.970Z,12.71
2019-04-04T04:49:23.775Z,12.70
2019-04-04T04:50:23.801Z,12.74
2019-04-04T04:51:23.833Z,12.63
2019-04-04T04:52:23.871Z,12.71
2019-04-04T04:53:23.899Z,12.69
2019-04-04T04:54:23.931Z,12.73
2019-04-04T04:55:24.540Z,12.63
2019-04-04T04:56:23.999Z,12.63
2019-04-04T04:57:29.989Z,12.70
2019-04-04T04:58:24.069Z,12.63
2019-04-04T04:59:24.093Z,12.59
2019-04-04T05:00:24.131Z,12.51
2019-04-04T05:01:24.155Z,12.61
2019-04-04T05:02:24.188Z,12.66
2019-04-04T05:03:24.850Z,12.66
2019-04-04T05:04:27.836Z,12.66
2019-04-04T05:05:24.286Z,12.66
2019-04-04T05:06:24.318Z,12.58
2019-04-04T05:07:24.353Z,12.66
2019-04-04T05:08:24.387Z,12.66
2019-04-04T05:09:24.418Z,12.54
2019-04-04T05:10:24.448Z,12.59
2019-04-04T05:11:24.480Z,12.63
2019-04-04T05:12:24.520Z,12.62
2019-04-04T05:13:26.099Z,12.59
2019-04-04T05:14:24.577Z,12.62
2019-04-04T05:15:24.609Z,12.67
2019-04-04T05:16:24.649Z,12.56
2019-04-04T05:17:24.678Z,12.61
2019-04-04T05:18:24.707Z,12.69
2019-04-04T05:19:24.761Z,12.70
2019-04-04T05:20:25.612Z,12.70
2019-04-04T05:21:28.523Z,12.62
2019-04-04T05:22:24.835Z,12.63
2019-04-04T05:23:24.890Z,12.69
2019-04-04T05:24:24.916Z,12.66
2019-04-04T05:25:24.931Z,12.67
2019-04-04T05:26:24.984Z,12.63
2019-04-04T05:27:24.997Z,12.67
2019-04-04T05:28:25.031Z,12.69
2019-04-04T05:29:25.060Z,12.69
2019-04-04T05:30:25.094Z,12.79
2019-04-04T05:31:25.167Z,12.70
2019-04-04T05:32:25.158Z,12.70
2019-04-04T05:33:27.413Z,12.71
2019-04-04T05:34:25.244Z,12.71
2019-04-04T05:35:25.256Z,12.73
2019-04-04T05:36:25.288Z,12.74
2019-04-04T05:37:27.485Z,12.74
2019-04-04T05:38:25.353Z,12.74
2019-04-04T05:39:25.388Z,12.77
2019-04-04T05:40:25.424Z,12.77
2019-04-04T05:41:27.264Z,12.81
2019-04-04T05:42:25.495Z,12.71
2019-04-04T05:43:25.517Z,12.76
2019-04-04T05:44:25.551Z,12.79
2019-04-04T05:45:25.578Z,12.87
2019-04-04T05:46:25.611Z,12.84
2019-04-04T05:47:25.665Z,12.87
2019-04-04T05:48:28.775Z,12.89
2019-04-04T05:49:25.713Z,12.84
2019-04-04T05:50:25.741Z,12.88
2019-04-04T05:51:25.790Z,12.88
2019-04-04T05:52:25.837Z,12.88
2019-04-04T05:53:25.837Z,12.80
2019-04-04T05:54:25.871Z,12.88
2019-04-04T05:55:25.910Z,12.94
2019-04-04T05:56:25.936Z,12.85
2019-04-04T05:57:25.965Z,12.88
2019-04-04T05:58:26.000Z,12.92
2019-04-04T05:59:26.050Z,12.99
2019-04-04T06:00:27.364Z,13.07
2019-04-04T06:01:26.097Z,13.10
2019-04-04T06:02:26.129Z,13.06
2019-04-04T06:03:26.159Z,13.03
2019-04-04T06:04:26.195Z,13.10
2019-04-04T06:05:27.298Z,13.13
2019-04-04T06:06:26.257Z,13.13
2019-04-04T06:07:26.298Z,13.16
2019-04-04T06:08:26.322Z,13.25
2019-04-04T06:09:26.357Z,13.28
2019-04-04T06:10:26.386Z,13.22
2019-04-04T06:11:26.420Z,13.28
2019-04-04T06:12:26.452Z,13.29
2019-04-04T06:13:27.004Z,13.24
2019-04-04T06:14:29.679Z,13.27
2019-04-04T06:15:26.550Z,13.35
2019-04-04T06:16:26.582Z,13.31
2019-04-04T06:17:27.049Z,13.36
2019-04-04T06:18:26.646Z,13.35
2019-04-04T06:19:26.678Z,13.41
2019-04-04T06:20:26.713Z,13.43
2019-04-04T06:21:26.745Z,13.50
2019-04-04T06:22:26.775Z,13.46
2019-04-04T06:23:26.809Z,13.48
2019-04-04T06:24:27.333Z,13.51
2019-04-04T06:25:26.902Z,13.46
2019-04-04T06:26:26.906Z,13.55
2019-04-04T06:27:26.938Z,13.44
2019-04-04T06:28:26.972Z,13.55
2019-04-04T06:29:27.004Z,13.54
2019-04-04T06:30:27.040Z,13.53
2019-04-04T06:31:30.619Z,13.55
2019-04-04T06:32:27.106Z,13.59
2019-04-04T06:33:27.134Z,13.65
2019-04-04T06:34:27.174Z,13.63
2019-04-04T06:35:27.204Z,13.59
2019-04-04T06:36:27.232Z,13.66
2019-04-04T06:37:27.264Z,13.69
2019-04-04T06:38:27.297Z,13.66
2019-04-04T06:39:27.332Z,13.73
2019-04-04T06:40:28.074Z,13.71
2019-04-04T06:41:28.299Z,13.72
2019-04-04T06:42:27.429Z,13.75
2019-04-04T06:43:27.459Z,13.80
2019-04-04T06:44:27.497Z,13.81
2019-04-04T06:45:29.713Z,13.83
2019-04-04T06:46:27.558Z,13.80
2019-04-04T06:47:27.592Z,13.79
2019-04-04T06:48:29.773Z,13.87
2019-04-04T06:49:28.964Z,13.91
2019-04-04T06:50:27.697Z,13.93
2019-04-04T06:51:27.724Z,13.96
2019-04-04T06:52:27.755Z,13.94
2019-04-04T06:53:27.792Z,13.98
2019-04-04T06:54:27.822Z,13.98
2019-04-04T06:55:28.735Z,14.09
2019-04-04T06:56:27.886Z,14.04
2019-04-04T06:57:27.918Z,14.08
2019-04-04T06:58:27.952Z,14.12
2019-04-04T06:59:27.984Z,14.16
2019-04-04T07:00:28.017Z,14.21
2019-04-04T07:01:28.052Z,14.17
2019-04-04T07:02:28.082Z,14.16
2019-04-04T07:03:28.248Z,14.26
2019-04-04T07:04:29.278Z,14.24
2019-04-04T07:05:28.181Z,14.24
2019-04-04T07:06:28.215Z,14.29
2019-04-04T07:07:28.248Z,14.38
2019-04-04T07:08:28.284Z,14.38
2019-04-04T07:09:28.312Z,14.36
2019-04-04T07:10:28.346Z,14.31
2019-04-04T07:11:28.379Z,14.42
2019-04-04T07:12:28.747Z,14.45
2019-04-04T07:13:28.457Z,14.45
2019-04-04T07:14:31.876Z,14.46
2019-04-04T07:15:28.511Z,14.46
2019-04-04T07:16:28.550Z,14.59
2019-04-04T07:17:28.574Z,14.57
2019-04-04T07:18:28.610Z,14.71
2019-04-04T07:19:28.643Z,14.74
2019-04-04T07:20:28.743Z,14.79
2019-04-04T07:21:28.707Z,14.78
2019-04-04T07:22:28.741Z,14.91
2019-04-04T07:23:28.775Z,14.85
2019-04-04T07:24:29.030Z,14.87
2019-04-04T07:25:28.843Z,15.03
2019-04-04T07:26:28.873Z,15.05
2019-04-04T07:27:28.907Z,15.05
2019-04-04T07:28:30.856Z,15.09
2019-04-04T07:29:28.975Z,15.19
2019-04-04T07:30:29.314Z,15.22
2019-04-04T07:31:29.046Z,15.28
2019-04-04T07:32:29.074Z,15.28
2019-04-04T07:33:29.112Z,15.34
2019-04-04T07:34:29.142Z,15.41
2019-04-04T07:35:29.172Z,15.44
2019-04-04T07:36:29.208Z,15.48
2019-04-04T07:37:29.240Z,15.53
2019-04-04T07:38:29.388Z,15.49
2019-04-04T07:39:32.013Z,15.46
2019-04-04T07:40:29.339Z,15.55
2019-04-04T07:41:29.374Z,15.59
2019-04-04T07:42:29.407Z,15.62
2019-04-04T07:43:29.444Z,15.66
2019-04-04T07:44:29.474Z,15.67
2019-04-04T07:45:29.511Z,15.71
2019-04-04T07:46:29.542Z,15.67
2019-04-04T07:47:29.577Z,15.73
2019-04-04T07:48:29.611Z,15.71
2019-04-04T07:49:29.643Z,15.81
2019-04-04T07:50:29.677Z,15.84
2019-04-04T07:51:30.253Z,15.85
2019-04-04T07:52:32.757Z,15.98
2019-04-04T07:53:29.778Z,15.95
2019-04-04T07:54:31.894Z,15.92
2019-04-04T07:55:29.845Z,15.91
2019-04-04T07:56:29.879Z,15.95
2019-04-04T07:57:30.366Z,15.96
2019-04-04T07:58:29.946Z,16.07
2019-04-04T07:59:31.206Z,15.95
2019-04-04T08:00:30.018Z,16.11
2019-04-04T08:01:30.046Z,16.13
2019-04-04T08:02:30.083Z,16.13
2019-04-04T08:03:30.115Z,16.11
2019-04-04T08:04:30.151Z,16.16
2019-04-04T08:05:30.183Z,16.10
2019-04-04T08:06:30.216Z,16.16
2019-04-04T08:07:30.251Z,16.26
2019-04-04T08:08:30.283Z,16.23
2019-04-04T08:09:30.318Z,16.16
2019-04-04T08:10:30.359Z,16.16
2019-04-04T08:11:30.388Z,16.22
2019-04-04T08:12:30.420Z,16.30
2019-04-04T08:13:30.455Z,16.34
2019-04-04T08:14:30.490Z,16.37
2019-04-04T08:15:30.524Z,16.40
2019-04-04T08:16:30.556Z,16.45
2019-04-04T08:17:30.589Z,16.54
2019-04-04T08:18:30.625Z,16.59
2019-04-04T08:19:30.660Z,16.57
2019-04-04T08:20:30.693Z,16.65
2019-04-04T08:21:30.727Z,16.52
2019-04-04T08:22:30.762Z,16.66
2019-04-04T08:23:30.796Z,16.67
2019-04-04T08:24:30.830Z,16.69
2019-04-04T08:25:30.865Z,16.75
2019-04-04T08:26:30.899Z,16.69
2019-04-04T08:27:30.931Z,16.75
2019-04-04T08:28:30.967Z,16.70
2019-04-04T08:29:31.000Z,16.72
2019-04-04T08:30:31.038Z,16.48
2019-04-04T08:31:31.071Z,16.48
2019-04-04T08:32:31.104Z,16.42
2019-04-04T08:33:31.137Z,16.40
2019-04-04T08:34:31.172Z,16.42
2019-04-04T08:35:31.208Z,16.40
2019-04-04T08:36:31.242Z,16.47
2019-04-04T08:37:31.275Z,16.44
2019-04-04T08:38:31.311Z,16.54
2019-04-04T08:39:31.345Z,16.59
2019-04-04T08:40:31.379Z,16.69
2019-04-04T08:41:31.420Z,16.70
2019-04-04T08:42:31.446Z,16.85
2019-04-04T08:43:31.483Z,16.85
2019-04-04T08:44:31.516Z,16.95
2019-04-04T08:45:31.551Z,16.98
2019-04-04T08:46:31.584Z,17.00
2019-04-04T08:47:31.625Z,17.05
2019-04-04T08:48:31.653Z,17.20
2019-04-04T08:49:31.686Z,17.25
2019-04-04T08:50:31.732Z,17.17
2019-04-04T08:51:31.758Z,17.27
2019-04-04T08:52:31.792Z,17.27
2019-04-04T08:53:39.713Z,17.35
2019-04-04T08:54:31.861Z,17.57
2019-04-04T08:55:31.895Z,17.53
2019-04-04T08:56:31.930Z,17.70
2019-04-04T08:57:31.965Z,17.66
2019-04-04T08:58:32.001Z,17.79
2019-04-04T08:59:32.035Z,17.89
2019-04-04T09:00:32.071Z,17.95
2019-04-04T09:01:32.104Z,18.02
2019-04-04T09:02:32.138Z,18.17
2019-04-04T09:03:32.174Z,18.32
2019-04-04T09:04:32.209Z,18.42
2019-04-04T09:05:32.244Z,18.54
2019-04-04T09:06:32.294Z,18.68
2019-04-04T09:07:32.316Z,18.79
2019-04-04T09:08:32.350Z,18.76
2019-04-04T09:09:34.646Z,19.02
2019-04-04T09:10:32.420Z,19.05
2019-04-04T09:11:32.456Z,19.25
2019-04-04T09:12:32.507Z,19.27
2019-04-04T09:13:32.525Z,19.43
2019-04-04T09:14:32.562Z,19.53
2019-04-04T09:15:32.595Z,19.58
2019-04-04T09:16:32.633Z,19.50
2019-04-04T09:17:32.679Z,19.53
2019-04-04T09:18:32.703Z,19.68
2019-04-04T09:19:32.739Z,19.82
2019-04-04T09:20:32.776Z,19.92
2019-04-04T09:21:32.809Z,19.92
2019-04-04T09:22:32.845Z,20.08
2019-04-04T09:23:32.881Z,20.04
2019-04-04T09:24:32.917Z,20.15
2019-04-04T09:25:32.955Z,20.13
2019-04-04T09:26:32.989Z,20.19
2019-04-04T09:27:33.027Z,20.16
2019-04-04T09:28:33.061Z,20.31
2019-04-04T09:29:33.094Z,20.31
2019-04-04T09:30:33.132Z,20.41
2019-04-04T09:31:33.169Z,20.56
2019-04-04T09:32:33.205Z,20.60
2019-04-04T09:33:33.240Z,20.63
2019-04-04T09:34:33.278Z,20.68
2019-04-04T09:35:33.313Z,20.72
2019-04-04T09:36:33.393Z,20.83
2019-04-04T09:37:33.393Z,20.85
2019-04-04T09:38:33.423Z,21.05
2019-04-04T09:39:33.459Z,21.05
2019-04-04T09:40:33.495Z,21.09
2019-04-04T09:41:33.533Z,21.21
2019-04-04T09:42:33.569Z,21.33
2019-04-04T09:43:33.604Z,21.33
2019-04-04T09:44:33.641Z,21.49
2019-04-04T09:45:33.677Z,21.53
2019-04-04T09:46:33.713Z,21.66
2019-04-04T09:47:33.750Z,21.64
2019-04-04T09:48:33.788Z,21.70
2019-04-04T09:49:33.826Z,21.73
2019-04-04T09:50:33.860Z,21.73
2019-04-04T09:51:33.898Z,21.81
2019-04-04T09:52:33.935Z,21.79
2019-04-04T09:53:33.972Z,21.94
2019-04-04T09:54:34.010Z,21.93
2019-04-04T09:55:34.045Z,21.98
2019-04-04T09:56:34.083Z,21.96
2019-04-04T09:57:34.120Z,21.89
2019-04-04T09:58:34.162Z,21.89
2019-04-04T09:59:34.197Z,21.96
2019-04-04T10:00:34.231Z,21.99
2019-04-04T10:01:34.269Z,22.06
2019-04-04T10:02:34.305Z,22.06
2019-04-04T10:03:34.344Z,22.26
2019-04-04T10:04:34.385Z,22.31
2019-04-04T10:05:34.420Z,22.38
2019-04-04T10:06:34.457Z,22.52
2019-04-04T10:07:34.498Z,22.56
2019-04-04T10:08:34.531Z,22.64
2019-04-04T10:09:34.567Z,22.70
2019-04-04T10:10:34.606Z,22.67
2019-04-04T10:11:34.644Z,22.63
2019-04-04T10:12:34.681Z,22.36
2019-04-04T10:13:34.718Z,22.24
2019-04-04T10:14:34.754Z,22.27
2019-04-04T10:15:34.809Z,22.26
2019-04-04T10:16:34.832Z,22.09
2019-04-04T10:17:34.868Z,22.06
2019-04-04T10:18:34.906Z,21.94
2019-04-04T10:19:34.946Z,21.98
2019-04-04T10:20:34.980Z,22.01
2019-04-04T10:21:35.018Z,22.08
2019-04-04T10:22:35.057Z,22.33
2019-04-04T10:23:35.094Z,22.41
2019-04-04T10:24:35.135Z,22.45
2019-04-04T10:25:35.169Z,22.61
2019-04-04T10:26:35.206Z,22.82
2019-04-04T10:27:35.243Z,22.99
2019-04-04T10:28:35.294Z,23.07
2019-04-04T10:29:35.320Z,23.23
2019-04-04T10:30:35.358Z,23.44
2019-04-04T10:31:35.398Z,23.59
2019-04-04T10:32:35.435Z,23.87
2019-04-04T10:33:35.472Z,23.82
2019-04-04T10:34:35.510Z,24.00
2019-04-04T10:35:35.547Z,24.06
2019-04-04T10:36:35.585Z,24.12
2019-04-04T10:37:35.624Z,24.21
2019-04-04T10:38:35.665Z,24.30
2019-04-04T10:39:35.700Z,24.24
2019-04-04T10:40:35.741Z,24.18
2019-04-04T10:41:35.776Z,24.12
2019-04-04T10:42:35.816Z,24.09
2019-04-04T10:43:35.854Z,24.11
2019-04-04T10:44:37.255Z,24.04
2019-04-04T10:45:35.931Z,24.08
2019-04-04T10:46:35.968Z,24.21
2019-04-04T10:47:36.011Z,24.21
2019-04-04T10:48:36.047Z,24.34
2019-04-04T10:49:36.142Z,24.34
2019-04-04T10:50:36.123Z,24.44
2019-04-04T10:51:36.163Z,24.64
2019-04-04T10:52:36.201Z,24.66
2019-04-04T10:53:36.239Z,24.79
2019-04-04T10:54:36.277Z,24.71
2019-04-04T10:55:36.317Z,24.89
2019-04-04T10:56:36.390Z,24.94
2019-04-04T10:57:36.394Z,25.02
2019-04-04T10:58:36.469Z,25.14
2019-04-04T10:59:36.471Z,25.19
2019-04-04T11:00:36.512Z,25.19
2019-04-04T11:01:36.550Z,25.20
2019-04-04T11:02:36.589Z,25.24
2019-04-04T11:03:36.632Z,25.36
2019-04-04T11:04:36.669Z,25.36
2019-04-04T11:05:36.705Z,25.56
2019-04-04T11:06:36.744Z,25.66
2019-04-04T11:07:36.789Z,25.86
2019-04-04T11:08:36.824Z,26.00
2019-04-04T11:09:42.063Z,26.08
2019-04-04T11:10:36.900Z,26.17
2019-04-04T11:11:36.941Z,26.21
2019-04-04T11:12:36.981Z,26.39
2019-04-04T11:13:37.020Z,26.42
2019-04-04T11:14:37.058Z,26.54
2019-04-04T11:15:37.102Z,26.57
2019-04-04T11:16:37.139Z,26.69
2019-04-04T11:17:37.178Z,26.69
2019-04-04T11:18:37.216Z,26.76
2019-04-04T11:19:37.256Z,26.73
2019-04-04T11:20:37.297Z,26.42
2019-04-04T11:21:37.337Z,26.27
2019-04-04T11:22:37.378Z,26.19
2019-04-04T11:23:37.415Z,26.20
2019-04-04T11:24:37.457Z,26.19
2019-04-04T11:25:37.497Z,26.27
2019-04-04T11:26:37.538Z,26.38
2019-04-04T11:27:37.576Z,26.49
2019-04-04T11:28:37.615Z,26.53
2019-04-04T11:29:37.657Z,26.69
2019-04-04T11:30:37.696Z,26.91
2019-04-04T11:31:37.734Z,26.93
2019-04-04T11:32:37.776Z,27.24
2019-04-04T11:33:37.814Z,27.25
2019-04-04T11:34:37.855Z,27.33
2019-04-04T11:35:37.896Z,27.35
2019-04-04T11:36:37.935Z,27.40
2019-04-04T11:37:37.973Z,27.03
2019-04-04T11:38:38.015Z,26.86
2019-04-04T11:39:38.055Z,26.71
2019-04-04T11:40:38.093Z,26.61
2019-04-04T11:41:38.134Z,26.51
2019-04-04T11:42:38.175Z,26.32
2019-04-04T11:43:38.215Z,26.31
2019-04-04T11:44:38.255Z,26.24
2019-04-04T11:45:38.294Z,26.13
2019-04-04T11:46:38.336Z,26.17
2019-04-04T11:47:38.375Z,26.17
2019-04-04T11:48:38.419Z,26.29
2019-04-04T11:49:38.455Z,26.38
2019-04-04T11:50:39.873Z,26.42
2019-04-04T11:51:38.536Z,26.47
2019-04-04T11:52:38.577Z,26.66
2019-04-04T11:53:38.615Z,26.68
2019-04-04T11:54:38.656Z,26.86
2019-04-04T11:55:38.696Z,26.90
2019-04-04T11:56:38.736Z,27.05
2019-04-04T11:57:38.775Z,27.21
2019-04-04T11:58:38.815Z,27.30
2019-04-04T11:59:38.857Z,27.42
2019-04-04T12:00:38.900Z,27.48
2019-04-04T12:01:38.938Z,27.58
2019-04-04T12:02:38.980Z,27.59
2019-04-04T12:03:39.020Z,27.76
2019-04-04T12:04:39.059Z,27.84
2019-04-04T12:05:39.098Z,27.81
2019-04-04T12:06:39.139Z,27.91
2019-04-04T12:07:39.180Z,28.09
2019-04-04T12:08:39.220Z,28.06
2019-04-04T12:09:39.267Z,28.17
2019-04-04T12:10:39.300Z,28.15
2019-04-04T12:11:39.342Z,28.14
2019-04-04T12:12:39.382Z,27.78
2019-04-04T12:13:39.423Z,27.61
2019-04-04T12:14:39.463Z,27.55
2019-04-04T12:15:39.503Z,27.48
2019-04-04T12:16:39.548Z,27.48
2019-04-04T12:17:39.585Z,27.38
2019-04-04T12:18:39.625Z,27.38
2019-04-04T12:19:39.667Z,27.21
2019-04-04T12:20:39.707Z,27.28
2019-04-04T12:21:39.748Z,27.15
2019-04-04T12:22:39.788Z,27.16
2019-04-04T12:23:39.829Z,27.06
2019-04-04T12:24:39.869Z,27.01
2019-04-04T12:25:39.909Z,26.78
2019-04-04T12:26:39.951Z,26.50
2019-04-04T12:27:39.992Z,26.39
2019-04-04T12:28:40.034Z,26.17
2019-04-04T12:29:40.071Z,26.11
2019-04-04T12:30:40.118Z,25.78
2019-04-04T12:31:40.175Z,25.57
2019-04-04T12:32:40.193Z,25.54
2019-04-04T12:33:40.234Z,25.57
2019-04-04T12:34:40.272Z,25.61
2019-04-04T12:35:40.314Z,25.60
2019-04-04T12:36:40.354Z,25.66
2019-04-04T12:37:40.395Z,25.83
2019-04-04T12:38:40.435Z,25.86
2019-04-04T12:39:40.478Z,26.01
2019-04-04T12:40:40.518Z,26.09
2019-04-04T12:41:40.560Z,26.17
2019-04-04T12:42:40.595Z,26.19
2019-04-04T12:43:40.635Z,26.24
2019-04-04T12:44:40.677Z,26.32
2019-04-04T12:45:40.716Z,26.42
2019-04-04T12:46:42.480Z,26.56
2019-04-04T12:47:40.796Z,26.68
2019-04-04T12:48:40.836Z,26.78
2019-04-04T12:49:40.877Z,26.81
2019-04-04T12:50:40.917Z,26.98
2019-04-04T12:51:40.956Z,27.01
2019-04-04T12:52:41.004Z,27.08
2019-04-04T12:53:41.038Z,27.21
2019-04-04T12:54:41.078Z,27.35
2019-04-04T12:55:41.119Z,27.27
2019-04-04T12:56:41.159Z,27.21
2019-04-04T12:57:41.199Z,27.21
2019-04-04T12:58:41.238Z,27.08
2019-04-04T12:59:41.278Z,27.08